sensor_id;sensor_type;location;lat;lon;timestamp;P1;durP1;ratioP1;P2;durP2;ratioP2
17915;SDS011;9083;49.156;8.982;2024-02-21T00:00:45;9.23;;;4.17;;
17915;SDS011;9083;49.156;8.982;2024-02-21T00:03:12;15.40;;;5.10;;
17915;SDS011;9083;49.156;8.982;2024-02-21T00:05:38;13.23;;;4.20;;
17915;SDS011;9083;49.156;8.982;2024-02-21T00:08:06;9.90;;;4.10;;
17915;SDS011;9083;49.156;8.982;2024-02-21T00:10:32;8.57;;;4.53;;
17915;SDS011;9083;49.156;8.982;2024-02-21T00:12:58;11.73;;;4.83;;
17915;SDS011;9083;49.156;8.982;2024-02-21T00:15:25;13.07;;;4.57;;
17915;SDS011;9083;49.156;8.982;2024-02-21T00:17:51;10.63;;;4.20;;
17915;SDS011;9083;49.156;8.982;2024-02-21T00:20:18;14.33;;;3.97;;
17915;SDS011;9083;49.156;8.982;2024-02-21T00:22:44;10.77;;;3.70;;
17915;SDS011;9083;49.156;8.982;2024-02-21T00:25:12;11.10;;;3.83;;
17915;SDS011;9083;49.156;8.982;2024-02-21T00:27:38;7.97;;;4.23;;
17915;SDS011;9083;49.156;8.982;2024-02-21T00:30:05;7.60;;;3.80;;
17915;SDS011;9083;49.156;8.982;2024-02-21T00:32:31;8.93;;;3.60;;
17915;SDS011;9083;49.156;8.982;2024-02-21T00:34:59;7.90;;;3.40;;
17915;SDS011;9083;49.156;8.982;2024-02-21T00:37:26;10.17;;;3.80;;
17915;SDS011;9083;49.156;8.982;2024-02-21T00:39:53;6.27;;;3.40;;
17915;SDS011;9083;49.156;8.982;2024-02-21T00:42:21;10.17;;;3.77;;
17915;SDS011;9083;49.156;8.982;2024-02-21T00:44:47;10.50;;;3.93;;
17915;SDS011;9083;49.156;8.982;2024-02-21T00:47:13;6.17;;;3.30;;
17915;SDS011;9083;49.156;8.982;2024-02-21T00:49:39;8.83;;;3.43;;
17915;SDS011;9083;49.156;8.982;2024-02-21T00:52:06;7.23;;;3.37;;
17915;SDS011;9083;49.156;8.982;2024-02-21T00:54:32;11.77;;;3.60;;
17915;SDS011;9083;49.156;8.982;2024-02-21T00:56:58;11.80;;;4.47;;
17915;SDS011;9083;49.156;8.982;2024-02-21T00:59:26;7.33;;;3.67;;
17915;SDS011;9083;49.156;8.982;2024-02-21T01:01:52;10.70;;;3.30;;
17915;SDS011;9083;49.156;8.982;2024-02-21T01:04:18;9.60;;;3.63;;
17915;SDS011;9083;49.156;8.982;2024-02-21T01:06:45;17.50;;;4.40;;
17915;SDS011;9083;49.156;8.982;2024-02-21T01:09:11;10.97;;;4.00;;
17915;SDS011;9083;49.156;8.982;2024-02-21T01:11:37;10.00;;;3.33;;
17915;SDS011;9083;49.156;8.982;2024-02-21T01:14:03;8.00;;;4.00;;
17915;SDS011;9083;49.156;8.982;2024-02-21T01:16:31;8.43;;;3.50;;
17915;SDS011;9083;49.156;8.982;2024-02-21T01:18:57;8.33;;;3.63;;
17915;SDS011;9083;49.156;8.982;2024-02-21T01:21:23;10.47;;;3.47;;
17915;SDS011;9083;49.156;8.982;2024-02-21T01:23:50;10.77;;;4.17;;
17915;SDS011;9083;49.156;8.982;2024-02-21T01:26:16;7.13;;;3.20;;
17915;SDS011;9083;49.156;8.982;2024-02-21T01:28:43;6.53;;;2.93;;
17915;SDS011;9083;49.156;8.982;2024-02-21T01:31:09;7.60;;;3.63;;
17915;SDS011;9083;49.156;8.982;2024-02-21T01:33:37;9.67;;;3.20;;
17915;SDS011;9083;49.156;8.982;2024-02-21T01:36:04;8.97;;;3.73;;
17915;SDS011;9083;49.156;8.982;2024-02-21T01:38:31;11.87;;;3.60;;
17915;SDS011;9083;49.156;8.982;2024-02-21T01:40:58;9.77;;;3.50;;
17915;SDS011;9083;49.156;8.982;2024-02-21T01:43:24;9.83;;;3.60;;
17915;SDS011;9083;49.156;8.982;2024-02-21T01:45:50;9.20;;;3.60;;
17915;SDS011;9083;49.156;8.982;2024-02-21T01:48:18;10.70;;;3.27;;
17915;SDS011;9083;49.156;8.982;2024-02-21T01:50:46;13.00;;;4.07;;
17915;SDS011;9083;49.156;8.982;2024-02-21T01:53:12;5.33;;;3.30;;
17915;SDS011;9083;49.156;8.982;2024-02-21T01:55:43;12.23;;;3.83;;
17915;SDS011;9083;49.156;8.982;2024-02-21T01:58:09;7.23;;;3.33;;
17915;SDS011;9083;49.156;8.982;2024-02-21T02:00:36;9.77;;;3.70;;
17915;SDS011;9083;49.156;8.982;2024-02-21T02:03:03;11.13;;;3.93;;
17915;SDS011;9083;49.156;8.982;2024-02-21T02:05:29;6.90;;;3.27;;
17915;SDS011;9083;49.156;8.982;2024-02-21T02:07:57;9.53;;;3.33;;
17915;SDS011;9083;49.156;8.982;2024-02-21T02:10:23;10.33;;;3.40;;
17915;SDS011;9083;49.156;8.982;2024-02-21T02:12:50;12.80;;;3.77;;
17915;SDS011;9083;49.156;8.982;2024-02-21T02:15:16;9.63;;;3.80;;
17915;SDS011;9083;49.156;8.982;2024-02-21T02:17:42;6.70;;;2.80;;
17915;SDS011;9083;49.156;8.982;2024-02-21T02:20:09;6.07;;;3.60;;
17915;SDS011;9083;49.156;8.982;2024-02-21T02:22:35;9.17;;;3.43;;
17915;SDS011;9083;49.156;8.982;2024-02-21T02:25:04;13.03;;;3.63;;
17915;SDS011;9083;49.156;8.982;2024-02-21T02:27:31;11.90;;;4.00;;
17915;SDS011;9083;49.156;8.982;2024-02-21T02:29:57;12.87;;;4.23;;
17915;SDS011;9083;49.156;8.982;2024-02-21T02:32:23;12.77;;;3.87;;
17915;SDS011;9083;49.156;8.982;2024-02-21T02:34:49;9.73;;;3.73;;
17915;SDS011;9083;49.156;8.982;2024-02-21T02:37:16;7.73;;;3.87;;
17915;SDS011;9083;49.156;8.982;2024-02-21T02:39:42;7.80;;;3.27;;
17915;SDS011;9083;49.156;8.982;2024-02-21T02:42:09;10.77;;;4.27;;
17915;SDS011;9083;49.156;8.982;2024-02-21T02:44:36;11.57;;;3.90;;
17915;SDS011;9083;49.156;8.982;2024-02-21T02:47:02;7.67;;;3.10;;
17915;SDS011;9083;49.156;8.982;2024-02-21T02:49:29;5.03;;;2.73;;
17915;SDS011;9083;49.156;8.982;2024-02-21T02:51:55;5.70;;;3.10;;
17915;SDS011;9083;49.156;8.982;2024-02-21T02:54:21;5.80;;;3.30;;
17915;SDS011;9083;49.156;8.982;2024-02-21T02:56:47;5.70;;;3.60;;
17915;SDS011;9083;49.156;8.982;2024-02-21T02:59:17;4.77;;;3.43;;
17915;SDS011;9083;49.156;8.982;2024-02-21T03:01:43;7.40;;;2.93;;
17915;SDS011;9083;49.156;8.982;2024-02-21T03:04:09;8.93;;;3.63;;
17915;SDS011;9083;49.156;8.982;2024-02-21T03:06:35;10.23;;;3.67;;
17915;SDS011;9083;49.156;8.982;2024-02-21T03:09:02;6.73;;;3.57;;
17915;SDS011;9083;49.156;8.982;2024-02-21T03:11:33;8.40;;;3.27;;
17915;SDS011;9083;49.156;8.982;2024-02-21T03:13:59;10.00;;;3.80;;
17915;SDS011;9083;49.156;8.982;2024-02-21T03:16:27;12.30;;;3.27;;
17915;SDS011;9083;49.156;8.982;2024-02-21T03:18:53;8.90;;;3.60;;
17915;SDS011;9083;49.156;8.982;2024-02-21T03:21:20;7.97;;;3.70;;
17915;SDS011;9083;49.156;8.982;2024-02-21T03:23:46;8.73;;;3.63;;
17915;SDS011;9083;49.156;8.982;2024-02-21T03:26:12;8.03;;;3.80;;
17915;SDS011;9083;49.156;8.982;2024-02-21T03:28:42;7.57;;;3.13;;
17915;SDS011;9083;49.156;8.982;2024-02-21T03:31:10;8.30;;;3.73;;
17915;SDS011;9083;49.156;8.982;2024-02-21T03:33:38;9.60;;;4.63;;
17915;SDS011;9083;49.156;8.982;2024-02-21T03:36:05;12.43;;;3.80;;
17915;SDS011;9083;49.156;8.982;2024-02-21T03:38:31;7.27;;;3.70;;
17915;SDS011;9083;49.156;8.982;2024-02-21T03:40:57;6.57;;;3.53;;
17915;SDS011;9083;49.156;8.982;2024-02-21T03:43:23;8.87;;;4.30;;
17915;SDS011;9083;49.156;8.982;2024-02-21T03:45:50;14.07;;;4.00;;
17915;SDS011;9083;49.156;8.982;2024-02-21T03:48:16;6.80;;;3.43;;
17915;SDS011;9083;49.156;8.982;2024-02-21T03:50:44;7.37;;;3.40;;
17915;SDS011;9083;49.156;8.982;2024-02-21T03:53:10;12.30;;;3.97;;
17915;SDS011;9083;49.156;8.982;2024-02-21T03:55:37;6.67;;;3.50;;
17915;SDS011;9083;49.156;8.982;2024-02-21T03:58:03;4.50;;;3.00;;
17915;SDS011;9083;49.156;8.982;2024-02-21T04:00:30;7.30;;;3.13;;
17915;SDS011;9083;49.156;8.982;2024-02-21T04:02:56;7.93;;;2.70;;
17915;SDS011;9083;49.156;8.982;2024-02-21T04:05:22;6.27;;;3.00;;
17915;SDS011;9083;49.156;8.982;2024-02-21T04:07:50;13.33;;;3.10;;
17915;SDS011;9083;49.156;8.982;2024-02-21T04:10:17;11.60;;;3.40;;
17915;SDS011;9083;49.156;8.982;2024-02-21T04:12:43;7.70;;;2.73;;
17915;SDS011;9083;49.156;8.982;2024-02-21T04:15:09;9.63;;;3.10;;
17915;SDS011;9083;49.156;8.982;2024-02-21T04:17:36;9.53;;;3.93;;
17915;SDS011;9083;49.156;8.982;2024-02-21T04:20:02;7.30;;;3.63;;
17915;SDS011;9083;49.156;8.982;2024-02-21T04:22:30;4.50;;;3.10;;
17915;SDS011;9083;49.156;8.982;2024-02-21T04:24:58;7.23;;;3.40;;
17915;SDS011;9083;49.156;8.982;2024-02-21T04:27:24;6.33;;;3.33;;
17915;SDS011;9083;49.156;8.982;2024-02-21T04:29:50;10.70;;;3.17;;
17915;SDS011;9083;49.156;8.982;2024-02-21T04:32:16;9.33;;;3.23;;
17915;SDS011;9083;49.156;8.982;2024-02-21T04:34:43;7.50;;;3.30;;
17915;SDS011;9083;49.156;8.982;2024-02-21T04:37:09;8.53;;;3.00;;
17915;SDS011;9083;49.156;8.982;2024-02-21T04:39:35;6.27;;;3.00;;
17915;SDS011;9083;49.156;8.982;2024-02-21T04:42:03;7.30;;;3.83;;
17915;SDS011;9083;49.156;8.982;2024-02-21T04:44:29;7.00;;;3.33;;
17915;SDS011;9083;49.156;8.982;2024-02-21T04:46:55;7.10;;;3.30;;
17915;SDS011;9083;49.156;8.982;2024-02-21T04:49:22;8.83;;;3.57;;
17915;SDS011;9083;49.156;8.982;2024-02-21T04:51:48;6.97;;;3.07;;
17915;SDS011;9083;49.156;8.982;2024-02-21T04:54:14;5.37;;;3.03;;
17915;SDS011;9083;49.156;8.982;2024-02-21T04:56:41;7.50;;;3.30;;
17915;SDS011;9083;49.156;8.982;2024-02-21T04:59:08;6.57;;;2.87;;
17915;SDS011;9083;49.156;8.982;2024-02-21T05:01:34;4.80;;;2.90;;
17915;SDS011;9083;49.156;8.982;2024-02-21T05:04:01;7.30;;;3.30;;
17915;SDS011;9083;49.156;8.982;2024-02-21T05:06:27;4.80;;;2.77;;
17915;SDS011;9083;49.156;8.982;2024-02-21T05:08:54;7.50;;;3.37;;
17915;SDS011;9083;49.156;8.982;2024-02-21T05:11:22;11.33;;;4.33;;
17915;SDS011;9083;49.156;8.982;2024-02-21T05:13:49;13.70;;;4.87;;
17915;SDS011;9083;49.156;8.982;2024-02-21T05:16:17;10.30;;;4.53;;
17915;SDS011;9083;49.156;8.982;2024-02-21T05:18:44;13.90;;;4.90;;
17915;SDS011;9083;49.156;8.982;2024-02-21T05:21:10;8.93;;;4.50;;
17915;SDS011;9083;49.156;8.982;2024-02-21T05:23:37;11.47;;;3.70;;
17915;SDS011;9083;49.156;8.982;2024-02-21T05:26:04;6.07;;;3.43;;
17915;SDS011;9083;49.156;8.982;2024-02-21T05:28:30;4.40;;;3.00;;
17915;SDS011;9083;49.156;8.982;2024-02-21T05:30:57;6.47;;;3.10;;
17915;SDS011;9083;49.156;8.982;2024-02-21T05:33:24;13.43;;;3.97;;
17915;SDS011;9083;49.156;8.982;2024-02-21T05:35:51;8.27;;;3.33;;
17915;SDS011;9083;49.156;8.982;2024-02-21T05:38:17;5.03;;;3.00;;
17915;SDS011;9083;49.156;8.982;2024-02-21T05:40:44;3.90;;;2.90;;
17915;SDS011;9083;49.156;8.982;2024-02-21T05:43:10;8.67;;;3.03;;
17915;SDS011;9083;49.156;8.982;2024-02-21T05:45:37;6.40;;;3.60;;
17915;SDS011;9083;49.156;8.982;2024-02-21T05:48:03;8.63;;;3.43;;
17915;SDS011;9083;49.156;8.982;2024-02-21T05:50:31;5.40;;;3.43;;
17915;SDS011;9083;49.156;8.982;2024-02-21T05:52:58;4.67;;;3.70;;
17915;SDS011;9083;49.156;8.982;2024-02-21T05:55:24;10.40;;;3.97;;
17915;SDS011;9083;49.156;8.982;2024-02-21T05:57:53;6.93;;;3.00;;
17915;SDS011;9083;49.156;8.982;2024-02-21T06:00:19;6.03;;;3.00;;
17915;SDS011;9083;49.156;8.982;2024-02-21T06:02:45;13.07;;;4.00;;
17915;SDS011;9083;49.156;8.982;2024-02-21T06:05:12;7.77;;;3.17;;
17915;SDS011;9083;49.156;8.982;2024-02-21T06:07:39;7.20;;;3.80;;
17915;SDS011;9083;49.156;8.982;2024-02-21T06:10:06;11.00;;;5.43;;
17915;SDS011;9083;49.156;8.982;2024-02-21T06:12:33;11.33;;;4.60;;
17915;SDS011;9083;49.156;8.982;2024-02-21T06:14:59;5.23;;;3.90;;
17915;SDS011;9083;49.156;8.982;2024-02-21T06:17:25;7.10;;;4.07;;
17915;SDS011;9083;49.156;8.982;2024-02-21T06:19:52;10.87;;;5.10;;
17915;SDS011;9083;49.156;8.982;2024-02-21T06:22:18;12.73;;;6.03;;
17915;SDS011;9083;49.156;8.982;2024-02-21T06:24:45;12.60;;;6.10;;
17915;SDS011;9083;49.156;8.982;2024-02-21T06:27:12;8.07;;;5.73;;
17915;SDS011;9083;49.156;8.982;2024-02-21T06:29:40;34.60;;;8.70;;
17915;SDS011;9083;49.156;8.982;2024-02-21T06:32:06;19.53;;;6.17;;
17915;SDS011;9083;49.156;8.982;2024-02-21T06:34:32;22.70;;;6.53;;
17915;SDS011;9083;49.156;8.982;2024-02-21T06:36:58;20.10;;;5.93;;
17915;SDS011;9083;49.156;8.982;2024-02-21T06:39:25;21.10;;;5.53;;
17915;SDS011;9083;49.156;8.982;2024-02-21T06:41:52;14.33;;;4.43;;
17915;SDS011;9083;49.156;8.982;2024-02-21T06:44:21;15.23;;;4.57;;
17915;SDS011;9083;49.156;8.982;2024-02-21T06:46:47;23.77;;;5.63;;
17915;SDS011;9083;49.156;8.982;2024-02-21T06:49:13;11.90;;;4.30;;
17915;SDS011;9083;49.156;8.982;2024-02-21T06:51:41;10.13;;;4.40;;
17915;SDS011;9083;49.156;8.982;2024-02-21T06:54:07;9.97;;;4.47;;
17915;SDS011;9083;49.156;8.982;2024-02-21T06:56:34;12.90;;;4.40;;
17915;SDS011;9083;49.156;8.982;2024-02-21T06:59:02;34.23;;;6.80;;
17915;SDS011;9083;49.156;8.982;2024-02-21T07:01:28;22.57;;;5.93;;
17915;SDS011;9083;49.156;8.982;2024-02-21T07:03:55;21.60;;;5.20;;
17915;SDS011;9083;49.156;8.982;2024-02-21T07:06:21;12.97;;;5.30;;
17915;SDS011;9083;49.156;8.982;2024-02-21T07:08:47;16.20;;;4.47;;
17915;SDS011;9083;49.156;8.982;2024-02-21T07:11:14;20.30;;;5.03;;
17915;SDS011;9083;49.156;8.982;2024-02-21T07:13:40;9.67;;;4.10;;
17915;SDS011;9083;49.156;8.982;2024-02-21T07:16:08;17.23;;;5.13;;
17915;SDS011;9083;49.156;8.982;2024-02-21T07:18:34;16.87;;;5.07;;
17915;SDS011;9083;49.156;8.982;2024-02-21T07:21:00;17.10;;;5.23;;
17915;SDS011;9083;49.156;8.982;2024-02-21T07:23:27;18.23;;;5.03;;
17915;SDS011;9083;49.156;8.982;2024-02-21T07:25:53;8.10;;;4.63;;
17915;SDS011;9083;49.156;8.982;2024-02-21T07:28:19;9.67;;;4.23;;
17915;SDS011;9083;49.156;8.982;2024-02-21T07:30:45;24.70;;;5.50;;
17915;SDS011;9083;49.156;8.982;2024-02-21T07:33:13;22.93;;;6.20;;
17915;SDS011;9083;49.156;8.982;2024-02-21T07:35:39;11.50;;;5.23;;
17915;SDS011;9083;49.156;8.982;2024-02-21T07:38:07;23.00;;;4.67;;
17915;SDS011;9083;49.156;8.982;2024-02-21T07:40:33;14.73;;;4.97;;
17915;SDS011;9083;49.156;8.982;2024-02-21T07:42:59;13.37;;;4.77;;
17915;SDS011;9083;49.156;8.982;2024-02-21T07:45:26;13.00;;;4.47;;
17915;SDS011;9083;49.156;8.982;2024-02-21T07:47:52;35.37;;;6.07;;
17915;SDS011;9083;49.156;8.982;2024-02-21T07:50:19;43.57;;;6.43;;
17915;SDS011;9083;49.156;8.982;2024-02-21T07:52:46;30.37;;;5.07;;
17915;SDS011;9083;49.156;8.982;2024-02-21T07:55:12;31.03;;;5.67;;
17915;SDS011;9083;49.156;8.982;2024-02-21T07:57:38;20.17;;;4.53;;
17915;SDS011;9083;49.156;8.982;2024-02-21T08:00:05;13.57;;;4.63;;
17915;SDS011;9083;49.156;8.982;2024-02-21T08:02:34;12.10;;;4.20;;
17915;SDS011;9083;49.156;8.982;2024-02-21T08:05:00;8.90;;;3.63;;
17915;SDS011;9083;49.156;8.982;2024-02-21T08:07:28;13.43;;;5.27;;
17915;SDS011;9083;49.156;8.982;2024-02-21T08:09:56;11.77;;;4.63;;
17915;SDS011;9083;49.156;8.982;2024-02-21T08:12:22;19.77;;;5.47;;
17915;SDS011;9083;49.156;8.982;2024-02-21T08:14:48;14.90;;;3.90;;
17915;SDS011;9083;49.156;8.982;2024-02-21T08:17:14;5.87;;;3.50;;
17915;SDS011;9083;49.156;8.982;2024-02-21T08:19:41;19.63;;;4.90;;
17915;SDS011;9083;49.156;8.982;2024-02-21T08:22:07;24.03;;;4.83;;
17915;SDS011;9083;49.156;8.982;2024-02-21T08:24:34;69.87;;;9.07;;
17915;SDS011;9083;49.156;8.982;2024-02-21T08:27:01;43.83;;;7.90;;
17915;SDS011;9083;49.156;8.982;2024-02-21T08:29:27;40.27;;;7.83;;
17915;SDS011;9083;49.156;8.982;2024-02-21T08:31:53;90.03;;;20.30;;
17915;SDS011;9083;49.156;8.982;2024-02-21T08:34:19;108.77;;;30.73;;
17915;SDS011;9083;49.156;8.982;2024-02-21T08:36:46;91.53;;;22.60;;
17915;SDS011;9083;49.156;8.982;2024-02-21T08:39:12;51.47;;;13.53;;
17915;SDS011;9083;49.156;8.982;2024-02-21T08:41:42;50.37;;;9.77;;
17915;SDS011;9083;49.156;8.982;2024-02-21T08:44:09;38.50;;;6.97;;
17915;SDS011;9083;49.156;8.982;2024-02-21T08:46:35;18.37;;;6.27;;
17915;SDS011;9083;49.156;8.982;2024-02-21T08:49:05;6.60;;;4.23;;
17915;SDS011;9083;49.156;8.982;2024-02-21T08:51:31;12.67;;;5.07;;
17915;SDS011;9083;49.156;8.982;2024-02-21T08:53:57;16.83;;;3.97;;
17915;SDS011;9083;49.156;8.982;2024-02-21T08:56:26;15.30;;;4.63;;
17915;SDS011;9083;49.156;8.982;2024-02-21T08:58:53;20.37;;;4.37;;
17915;SDS011;9083;49.156;8.982;2024-02-21T09:01:19;15.07;;;4.83;;
17915;SDS011;9083;49.156;8.982;2024-02-21T09:03:46;59.33;;;9.80;;
17915;SDS011;9083;49.156;8.982;2024-02-21T09:06:12;26.17;;;4.93;;
17915;SDS011;9083;49.156;8.982;2024-02-21T09:08:39;37.80;;;15.13;;
17915;SDS011;9083;49.156;8.982;2024-02-21T09:11:05;33.63;;;8.30;;
17915;SDS011;9083;49.156;8.982;2024-02-21T09:13:32;27.30;;;7.87;;
17915;SDS011;9083;49.156;8.982;2024-02-21T09:15:59;22.40;;;7.00;;
17915;SDS011;9083;49.156;8.982;2024-02-21T09:18:26;24.50;;;6.40;;
17915;SDS011;9083;49.156;8.982;2024-02-21T09:20:52;61.97;;;7.93;;
17915;SDS011;9083;49.156;8.982;2024-02-21T09:23:18;13.63;;;4.60;;
17915;SDS011;9083;49.156;8.982;2024-02-21T09:25:45;12.10;;;3.83;;
17915;SDS011;9083;49.156;8.982;2024-02-21T09:28:12;25.53;;;4.23;;
17915;SDS011;9083;49.156;8.982;2024-02-21T09:30:39;16.10;;;4.87;;
17915;SDS011;9083;49.156;8.982;2024-02-21T09:33:07;11.00;;;3.37;;
17915;SDS011;9083;49.156;8.982;2024-02-21T09:35:33;10.37;;;3.73;;
17915;SDS011;9083;49.156;8.982;2024-02-21T09:37:59;14.17;;;3.40;;
17915;SDS011;9083;49.156;8.982;2024-02-21T09:40:26;13.33;;;3.47;;
17915;SDS011;9083;49.156;8.982;2024-02-21T09:42:54;71.60;;;8.40;;
17915;SDS011;9083;49.156;8.982;2024-02-21T09:45:24;21.90;;;3.60;;
17915;SDS011;9083;49.156;8.982;2024-02-21T09:47:54;5.30;;;2.73;;
17915;SDS011;9083;49.156;8.982;2024-02-21T09:50:25;9.30;;;3.30;;
17915;SDS011;9083;49.156;8.982;2024-02-21T09:52:52;8.93;;;3.60;;
17915;SDS011;9083;49.156;8.982;2024-02-21T09:55:18;8.57;;;4.00;;
17915;SDS011;9083;49.156;8.982;2024-02-21T09:57:45;6.40;;;3.00;;
17915;SDS011;9083;49.156;8.982;2024-02-21T10:00:12;13.70;;;3.10;;
17915;SDS011;9083;49.156;8.982;2024-02-21T10:02:46;8.80;;;2.20;;
17915;SDS011;9083;49.156;8.982;2024-02-21T10:05:12;6.60;;;2.70;;
17915;SDS011;9083;49.156;8.982;2024-02-21T10:07:40;6.87;;;2.70;;
17915;SDS011;9083;49.156;8.982;2024-02-21T10:10:07;10.93;;;3.20;;
17915;SDS011;9083;49.156;8.982;2024-02-21T10:12:33;13.43;;;3.40;;
17915;SDS011;9083;49.156;8.982;2024-02-21T10:15:00;12.00;;;3.60;;
17915;SDS011;9083;49.156;8.982;2024-02-21T10:17:26;4.93;;;2.20;;
17915;SDS011;9083;49.156;8.982;2024-02-21T10:19:53;28.97;;;4.57;;
17915;SDS011;9083;49.156;8.982;2024-02-21T10:22:19;6.07;;;3.10;;
17915;SDS011;9083;49.156;8.982;2024-02-21T10:24:47;6.23;;;4.33;;
17915;SDS011;9083;49.156;8.982;2024-02-21T10:27:13;33.13;;;4.67;;
17915;SDS011;9083;49.156;8.982;2024-02-21T10:29:40;4.17;;;2.60;;
17915;SDS011;9083;49.156;8.982;2024-02-21T10:32:07;12.40;;;3.37;;
17915;SDS011;9083;49.156;8.982;2024-02-21T10:34:33;4.70;;;2.33;;
17915;SDS011;9083;49.156;8.982;2024-02-21T10:37:00;6.83;;;2.50;;
17915;SDS011;9083;49.156;8.982;2024-02-21T10:39:27;8.10;;;3.07;;
17915;SDS011;9083;49.156;8.982;2024-02-21T10:41:54;66.60;;;6.80;;
17915;SDS011;9083;49.156;8.982;2024-02-21T10:44:22;25.70;;;4.03;;
17915;SDS011;9083;49.156;8.982;2024-02-21T10:46:49;9.77;;;2.87;;
17915;SDS011;9083;49.156;8.982;2024-02-21T10:49:16;6.37;;;2.30;;
17915;SDS011;9083;49.156;8.982;2024-02-21T10:51:46;4.30;;;2.10;;
17915;SDS011;9083;49.156;8.982;2024-02-21T10:54:16;4.93;;;2.10;;
17915;SDS011;9083;49.156;8.982;2024-02-21T10:56:45;9.53;;;2.87;;
17915;SDS011;9083;49.156;8.982;2024-02-21T10:59:13;8.27;;;2.30;;
17915;SDS011;9083;49.156;8.982;2024-02-21T11:01:39;7.50;;;2.33;;
17915;SDS011;9083;49.156;8.982;2024-02-21T11:04:06;10.77;;;3.10;;
17915;SDS011;9083;49.156;8.982;2024-02-21T11:06:34;5.03;;;2.23;;
17915;SDS011;9083;49.156;8.982;2024-02-21T11:09:02;8.40;;;2.80;;
17915;SDS011;9083;49.156;8.982;2024-02-21T11:11:29;7.97;;;2.40;;
17915;SDS011;9083;49.156;8.982;2024-02-21T11:14:03;7.07;;;2.70;;
17915;SDS011;9083;49.156;8.982;2024-02-21T11:16:34;6.83;;;2.27;;
17915;SDS011;9083;49.156;8.982;2024-02-21T11:19:04;5.80;;;2.43;;
17915;SDS011;9083;49.156;8.982;2024-02-21T11:21:32;9.13;;;2.40;;
17915;SDS011;9083;49.156;8.982;2024-02-21T11:23:58;9.60;;;3.00;;
17915;SDS011;9083;49.156;8.982;2024-02-21T11:26:27;8.00;;;3.60;;
17915;SDS011;9083;49.156;8.982;2024-02-21T11:28:57;10.33;;;3.00;;
17915;SDS011;9083;49.156;8.982;2024-02-21T11:31:24;4.93;;;2.57;;
17915;SDS011;9083;49.156;8.982;2024-02-21T11:33:53;4.70;;;1.70;;
17915;SDS011;9083;49.156;8.982;2024-02-21T11:36:24;9.27;;;2.70;;
17915;SDS011;9083;49.156;8.982;2024-02-21T11:38:50;6.67;;;2.50;;
17915;SDS011;9083;49.156;8.982;2024-02-21T11:41:17;32.50;;;4.53;;
17915;SDS011;9083;49.156;8.982;2024-02-21T11:43:43;5.63;;;2.80;;
17915;SDS011;9083;49.156;8.982;2024-02-21T11:46:09;5.73;;;2.07;;
17915;SDS011;9083;49.156;8.982;2024-02-21T11:48:35;26.70;;;4.00;;
17915;SDS011;9083;49.156;8.982;2024-02-21T11:51:04;16.97;;;3.80;;
17915;SDS011;9083;49.156;8.982;2024-02-21T11:53:30;5.17;;;2.17;;
17915;SDS011;9083;49.156;8.982;2024-02-21T11:55:58;4.90;;;2.63;;
17915;SDS011;9083;49.156;8.982;2024-02-21T11:58:24;5.60;;;2.97;;
17915;SDS011;9083;49.156;8.982;2024-02-21T12:00:51;9.17;;;2.93;;
17915;SDS011;9083;49.156;8.982;2024-02-21T12:03:18;7.63;;;2.70;;
17915;SDS011;9083;49.156;8.982;2024-02-21T12:05:44;8.07;;;3.07;;
17915;SDS011;9083;49.156;8.982;2024-02-21T12:08:13;8.93;;;2.43;;
17915;SDS011;9083;49.156;8.982;2024-02-21T12:10:39;7.47;;;2.47;;
17915;SDS011;9083;49.156;8.982;2024-02-21T12:13:06;17.77;;;3.43;;
17915;SDS011;9083;49.156;8.982;2024-02-21T12:15:33;8.77;;;2.50;;
17915;SDS011;9083;49.156;8.982;2024-02-21T12:17:59;10.47;;;2.60;;
17915;SDS011;9083;49.156;8.982;2024-02-21T12:20:26;17.77;;;2.87;;
17915;SDS011;9083;49.156;8.982;2024-02-21T12:22:52;10.83;;;2.63;;
17915;SDS011;9083;49.156;8.982;2024-02-21T12:25:21;11.07;;;2.80;;
17915;SDS011;9083;49.156;8.982;2024-02-21T12:27:48;7.20;;;2.33;;
17915;SDS011;9083;49.156;8.982;2024-02-21T12:30:15;10.47;;;2.50;;
17915;SDS011;9083;49.156;8.982;2024-02-21T12:32:42;6.30;;;3.53;;
17915;SDS011;9083;49.156;8.982;2024-02-21T12:35:08;13.67;;;3.00;;
17915;SDS011;9083;49.156;8.982;2024-02-21T12:37:35;8.20;;;2.80;;
17915;SDS011;9083;49.156;8.982;2024-02-21T12:40:03;5.77;;;2.40;;
17915;SDS011;9083;49.156;8.982;2024-02-21T12:42:33;11.40;;;2.50;;
17915;SDS011;9083;49.156;8.982;2024-02-21T12:44:59;5.10;;;2.20;;
17915;SDS011;9083;49.156;8.982;2024-02-21T12:47:26;5.20;;;2.30;;
17915;SDS011;9083;49.156;8.982;2024-02-21T12:49:52;3.73;;;2.20;;
17915;SDS011;9083;49.156;8.982;2024-02-21T12:52:18;8.97;;;2.70;;
17915;SDS011;9083;49.156;8.982;2024-02-21T12:54:45;5.03;;;2.40;;
17915;SDS011;9083;49.156;8.982;2024-02-21T12:57:12;11.80;;;2.70;;
17915;SDS011;9083;49.156;8.982;2024-02-21T12:59:40;8.93;;;2.03;;
17915;SDS011;9083;49.156;8.982;2024-02-21T13:02:06;8.20;;;2.33;;
17915;SDS011;9083;49.156;8.982;2024-02-21T13:04:33;12.37;;;2.83;;
17915;SDS011;9083;49.156;8.982;2024-02-21T13:07:00;9.90;;;2.80;;
17915;SDS011;9083;49.156;8.982;2024-02-21T13:09:26;6.07;;;2.57;;
17915;SDS011;9083;49.156;8.982;2024-02-21T13:11:52;8.33;;;2.40;;
17915;SDS011;9083;49.156;8.982;2024-02-21T13:14:19;5.17;;;2.10;;
17915;SDS011;9083;49.156;8.982;2024-02-21T13:16:46;7.57;;;2.30;;
17915;SDS011;9083;49.156;8.982;2024-02-21T13:19:13;6.67;;;2.03;;
17915;SDS011;9083;49.156;8.982;2024-02-21T13:21:42;7.90;;;2.30;;
17915;SDS011;9083;49.156;8.982;2024-02-21T13:24:08;8.13;;;2.37;;
17915;SDS011;9083;49.156;8.982;2024-02-21T13:26:35;8.57;;;2.23;;
17915;SDS011;9083;49.156;8.982;2024-02-21T13:29:01;5.43;;;2.00;;
17915;SDS011;9083;49.156;8.982;2024-02-21T13:31:27;23.17;;;3.37;;
17915;SDS011;9083;49.156;8.982;2024-02-21T13:33:55;10.40;;;2.03;;
17915;SDS011;9083;49.156;8.982;2024-02-21T13:36:21;50.53;;;5.03;;
17915;SDS011;9083;49.156;8.982;2024-02-21T13:38:48;5.27;;;2.53;;
17915;SDS011;9083;49.156;8.982;2024-02-21T13:41:16;6.10;;;2.47;;
17915;SDS011;9083;49.156;8.982;2024-02-21T13:43:42;21.33;;;3.53;;
17915;SDS011;9083;49.156;8.982;2024-02-21T13:46:09;10.47;;;3.17;;
17915;SDS011;9083;49.156;8.982;2024-02-21T13:48:36;15.07;;;2.90;;
17915;SDS011;9083;49.156;8.982;2024-02-21T13:51:04;6.33;;;2.40;;
17915;SDS011;9083;49.156;8.982;2024-02-21T13:53:30;6.77;;;2.27;;
17915;SDS011;9083;49.156;8.982;2024-02-21T13:55:56;8.73;;;2.33;;
17915;SDS011;9083;49.156;8.982;2024-02-21T13:58:23;29.47;;;4.23;;
17915;SDS011;9083;49.156;8.982;2024-02-21T14:00:51;16.13;;;3.20;;
17915;SDS011;9083;49.156;8.982;2024-02-21T14:03:17;16.33;;;3.60;;
17915;SDS011;9083;49.156;8.982;2024-02-21T14:05:44;5.87;;;2.40;;
17915;SDS011;9083;49.156;8.982;2024-02-21T14:08:11;17.47;;;3.33;;
17915;SDS011;9083;49.156;8.982;2024-02-21T14:10:38;12.00;;;3.67;;
17915;SDS011;9083;49.156;8.982;2024-02-21T14:13:04;12.10;;;3.93;;
17915;SDS011;9083;49.156;8.982;2024-02-21T14:15:30;10.93;;;2.73;;
17915;SDS011;9083;49.156;8.982;2024-02-21T14:17:57;6.13;;;1.93;;
17915;SDS011;9083;49.156;8.982;2024-02-21T14:20:23;20.73;;;3.17;;
17915;SDS011;9083;49.156;8.982;2024-02-21T14:22:50;11.47;;;2.57;;
17915;SDS011;9083;49.156;8.982;2024-02-21T14:25:17;8.90;;;2.30;;
17915;SDS011;9083;49.156;8.982;2024-02-21T14:27:44;5.70;;;2.30;;
17915;SDS011;9083;49.156;8.982;2024-02-21T14:30:10;2.33;;;2.13;;
17915;SDS011;9083;49.156;8.982;2024-02-21T14:32:36;9.23;;;2.70;;
17915;SDS011;9083;49.156;8.982;2024-02-21T14:35:03;9.83;;;2.20;;
17915;SDS011;9083;49.156;8.982;2024-02-21T14:37:29;8.57;;;2.93;;
17915;SDS011;9083;49.156;8.982;2024-02-21T14:39:56;6.73;;;2.30;;
17915;SDS011;9083;49.156;8.982;2024-02-21T14:42:23;5.83;;;2.33;;
17915;SDS011;9083;49.156;8.982;2024-02-21T14:44:50;6.27;;;2.67;;
17915;SDS011;9083;49.156;8.982;2024-02-21T14:47:16;15.53;;;3.23;;
17915;SDS011;9083;49.156;8.982;2024-02-21T14:49:43;7.60;;;2.37;;
17915;SDS011;9083;49.156;8.982;2024-02-21T14:52:09;7.70;;;2.83;;